createdAt,value
2019-05-19T00:01:59.914Z,21.27
2019-05-19T00:04:29.109Z,19.97
2019-05-19T00:06:58.074Z,21.13
2019-05-19T00:09:27.000Z,20.43
2019-05-19T00:11:55.865Z,20.73
2019-05-19T00:14:24.985Z,21.67
2019-05-19T00:16:53.871Z,20.07
2019-05-19T00:19:26.622Z,21.13
2019-05-19T00:21:53.386Z,21.87
2019-05-19T00:24:22.125Z,20.60
2019-05-19T00:26:50.941Z,21.23
2019-05-19T00:29:19.868Z,21.13
2019-05-19T00:31:48.710Z,19.93
2019-05-19T00:34:17.683Z,20.77
2019-05-19T00:36:46.667Z,20.47
2019-05-19T00:39:15.723Z,20.40
2019-05-19T00:41:44.644Z,20.60
2019-05-19T00:44:13.487Z,20.03
2019-05-19T00:46:42.395Z,19.23
2019-05-19T00:49:11.347Z,19.60
2019-05-19T00:51:40.406Z,19.63
2019-05-19T00:54:10.288Z,19.67
2019-05-19T00:56:39.198Z,19.13
2019-05-19T00:59:08.841Z,18.90
2019-05-19T01:01:38.995Z,19.23
2019-05-19T01:04:07.788Z,19.13
2019-05-19T01:06:36.681Z,17.07
2019-05-19T01:09:06.808Z,19.67
2019-05-19T01:11:35.558Z,19.27
2019-05-19T01:14:04.549Z,18.77
2019-05-19T01:16:33.400Z,18.57
2019-05-19T01:19:02.358Z,18.83
2019-05-19T01:21:32.002Z,19.07
2019-05-19T01:24:00.783Z,19.87
2019-05-19T01:26:29.610Z,19.83
2019-05-19T01:28:58.455Z,20.60
2019-05-19T01:31:27.414Z,20.30
2019-05-19T01:33:56.316Z,19.47
2019-05-19T01:36:25.128Z,18.97
2019-05-19T01:38:53.886Z,18.53
2019-05-19T01:41:22.741Z,19.63
2019-05-19T01:43:51.723Z,19.73
2019-05-19T01:46:20.605Z,19.97
2019-05-19T01:48:49.347Z,19.57
2019-05-19T01:51:18.138Z,20.27
2019-05-19T01:53:46.932Z,19.23
2019-05-19T01:56:15.921Z,20.00
2019-05-19T01:58:44.871Z,19.00
2019-05-19T02:01:13.707Z,18.97
2019-05-19T02:03:44.166Z,18.50
2019-05-19T02:06:13.147Z,18.93
2019-05-19T02:08:42.004Z,19.40
2019-05-19T02:11:10.760Z,19.57
2019-05-19T02:13:39.573Z,20.17
2019-05-19T02:16:08.489Z,19.67
2019-05-19T02:18:37.418Z,19.87
2019-05-19T02:21:06.457Z,20.13
2019-05-19T02:23:35.245Z,20.03
2019-05-19T02:26:04.149Z,18.70
2019-05-19T02:28:33.129Z,19.33
2019-05-19T02:31:01.964Z,20.23
2019-05-19T02:33:34.982Z,19.20
2019-05-19T02:36:01.322Z,18.03
2019-05-19T02:38:30.184Z,19.17
2019-05-19T02:41:00.499Z,19.37
2019-05-19T02:43:29.926Z,19.17
2019-05-19T02:46:01.793Z,20.37
2019-05-19T02:48:31.969Z,19.23
2019-05-19T02:51:03.694Z,19.87
2019-05-19T02:53:33.286Z,19.13
2019-05-19T02:56:04.162Z,18.80
2019-05-19T02:58:33.923Z,19.37
2019-05-19T03:01:02.696Z,19.10
2019-05-19T03:03:33.904Z,18.60
2019-05-19T03:06:02.898Z,19.40
2019-05-19T03:08:32.294Z,19.57
2019-05-19T03:11:01.309Z,19.20
2019-05-19T03:13:30.231Z,18.60
2019-05-19T03:15:59.072Z,20.43
2019-05-19T03:18:28.037Z,19.90
2019-05-19T03:21:10.305Z,20.13
2019-05-19T03:23:27.329Z,18.50
2019-05-19T03:25:56.153Z,19.00
2019-05-19T03:28:24.956Z,19.47
2019-05-19T03:31:00.830Z,18.57
2019-05-19T03:33:31.234Z,17.23
2019-05-19T03:36:00.150Z,19.60
2019-05-19T03:38:28.969Z,18.00
2019-05-19T03:40:57.861Z,18.73
2019-05-19T03:43:26.735Z,18.27
2019-05-19T03:45:55.577Z,19.83
2019-05-19T03:48:24.502Z,19.57
2019-05-19T03:50:53.367Z,17.83
2019-05-19T03:53:22.260Z,18.40
2019-05-19T03:55:51.096Z,19.50
2019-05-19T03:58:20.418Z,19.37
2019-05-19T04:00:49.500Z,19.30
2019-05-19T04:03:18.328Z,18.10
2019-05-19T04:05:49.572Z,19.33
2019-05-19T04:08:18.363Z,18.87
2019-05-19T04:10:47.199Z,18.90
2019-05-19T04:13:16.038Z,19.43
2019-05-19T04:15:44.821Z,20.00
2019-05-19T04:18:13.709Z,18.37
2019-05-19T04:20:42.626Z,17.87
2019-05-19T04:23:11.540Z,19.60
2019-05-19T04:25:40.443Z,18.23
2019-05-19T04:28:09.291Z,18.23
2019-05-19T04:30:38.095Z,19.07
2019-05-19T04:33:07.069Z,18.67
2019-05-19T04:35:35.816Z,18.53
2019-05-19T04:38:04.678Z,18.07
2019-05-19T04:40:33.553Z,18.57
2019-05-19T04:43:02.522Z,18.77
2019-05-19T04:45:31.432Z,18.47
2019-05-19T04:48:00.359Z,18.07
2019-05-19T04:50:29.192Z,17.40
2019-05-19T04:52:58.103Z,16.87
2019-05-19T04:55:27.024Z,17.33
2019-05-19T04:57:55.851Z,16.87
2019-05-19T05:00:24.786Z,17.23
2019-05-19T05:02:53.620Z,17.10
2019-05-19T05:05:22.556Z,17.03
2019-05-19T05:07:51.412Z,16.73
2019-05-19T05:10:20.491Z,16.23
2019-05-19T05:12:49.338Z,15.63
2019-05-19T05:15:18.344Z,16.17
2019-05-19T05:17:47.183Z,15.60
2019-05-19T05:20:16.312Z,15.73
2019-05-19T05:22:47.269Z,16.23
2019-05-19T05:25:16.563Z,16.33
2019-05-19T05:27:45.299Z,15.77
2019-05-19T05:30:14.279Z,16.10
2019-05-19T05:32:43.142Z,15.00
2019-05-19T05:35:12.510Z,15.17
2019-05-19T05:37:41.415Z,15.00
2019-05-19T05:40:10.341Z,16.17
2019-05-19T05:42:39.169Z,15.03
2019-05-19T05:45:09.086Z,14.67
2019-05-19T05:47:37.941Z,14.70
2019-05-19T05:50:07.481Z,14.77
2019-05-19T05:52:38.792Z,14.37
2019-05-19T05:55:07.441Z,13.67
2019-05-19T05:57:36.454Z,15.03
2019-05-19T06:00:06.143Z,14.57
2019-05-19T06:02:35.367Z,14.50
2019-05-19T06:05:04.755Z,14.07
2019-05-19T06:07:33.738Z,13.83
2019-05-19T06:10:02.629Z,13.73
2019-05-19T06:12:31.498Z,14.10
2019-05-19T06:15:00.415Z,14.03
2019-05-19T06:17:29.377Z,13.10
2019-05-19T06:19:58.210Z,14.10
2019-05-19T06:22:27.084Z,12.87
2019-05-19T06:24:58.951Z,14.80
2019-05-19T06:27:26.454Z,13.77
2019-05-19T06:29:55.338Z,13.07
2019-05-19T06:32:34.102Z,13.30
2019-05-19T06:35:03.089Z,13.63
2019-05-19T06:37:31.975Z,13.50
2019-05-19T06:40:00.859Z,13.27
2019-05-19T06:42:49.299Z,13.30
2019-05-19T06:45:18.380Z,12.77
2019-05-19T06:47:47.349Z,13.33
2019-05-19T06:50:16.565Z,12.93
2019-05-19T06:52:45.464Z,13.50
2019-05-19T06:55:15.255Z,13.00
2019-05-19T06:57:44.290Z,13.67
2019-05-19T07:00:14.628Z,12.40
2019-05-19T07:02:43.466Z,13.20
2019-05-19T07:05:13.014Z,14.07
2019-05-19T07:07:41.936Z,13.83
2019-05-19T07:10:11.338Z,13.03
2019-05-19T07:12:40.172Z,13.00
2019-05-19T07:15:09.621Z,13.37
2019-05-19T07:17:38.436Z,13.60
2019-05-19T07:20:08.033Z,12.87
2019-05-19T07:22:37.699Z,13.60
2019-05-19T07:25:07.186Z,13.40
2019-05-19T07:27:36.321Z,13.37
2019-05-19T07:30:05.496Z,14.67
2019-05-19T07:32:34.276Z,14.37
2019-05-19T07:35:03.189Z,14.60
2019-05-19T07:37:32.336Z,13.87
2019-05-19T07:40:01.281Z,13.70
2019-05-19T07:42:30.215Z,13.87
2019-05-19T07:44:59.110Z,14.63
2019-05-19T07:47:27.952Z,15.23
2019-05-19T07:49:56.806Z,13.90
2019-05-19T07:52:25.864Z,14.37
2019-05-19T07:54:54.679Z,14.50
2019-05-19T07:57:23.622Z,14.73
2019-05-19T07:59:52.380Z,14.40
2019-05-19T08:02:21.152Z,13.97
2019-05-19T08:04:50.008Z,14.63
2019-05-19T08:07:19.227Z,13.90
2019-05-19T08:09:48.046Z,14.17
2019-05-19T08:12:17.245Z,14.40
2019-05-19T08:14:46.133Z,14.90
2019-05-19T08:17:14.969Z,15.80
2019-05-19T08:19:43.955Z,14.40
2019-05-19T08:22:12.873Z,13.80
2019-05-19T08:24:41.749Z,15.03
2019-05-19T08:27:11.557Z,14.83
2019-05-19T08:29:40.412Z,14.20
2019-05-19T08:32:09.325Z,14.60
2019-05-19T08:34:38.140Z,13.70
2019-05-19T08:37:07.043Z,16.80
2019-05-19T08:39:35.907Z,15.20
2019-05-19T08:42:04.717Z,13.47
2019-05-19T08:44:33.561Z,13.60
2019-05-19T08:47:02.376Z,13.90
2019-05-19T08:49:31.172Z,14.07
2019-05-19T08:52:00.060Z,13.70
2019-05-19T08:54:28.890Z,13.30
2019-05-19T08:56:57.770Z,13.37
2019-05-19T08:59:26.740Z,13.13
2019-05-19T09:01:55.628Z,12.63
2019-05-19T09:04:24.393Z,13.03
2019-05-19T09:06:53.150Z,11.30
2019-05-19T09:09:21.993Z,11.47
2019-05-19T09:11:50.869Z,11.03
2019-05-19T09:14:19.747Z,10.80
2019-05-19T09:16:48.596Z,10.07
2019-05-19T09:19:17.481Z,10.67
2019-05-19T09:21:46.366Z,10.63
2019-05-19T09:24:29.552Z,10.00
2019-05-19T09:26:45.763Z,9.87
2019-05-19T09:29:14.643Z,9.67
2019-05-19T09:31:43.509Z,10.27
2019-05-19T09:34:12.355Z,9.50
2019-05-19T09:36:41.361Z,9.33
2019-05-19T09:39:11.737Z,9.13
2019-05-19T09:41:40.556Z,8.77
2019-05-19T09:44:09.391Z,9.80
2019-05-19T09:46:38.306Z,9.60
2019-05-19T09:49:24.768Z,9.43
2019-05-19T09:51:53.697Z,8.80
2019-05-19T09:54:22.506Z,8.67
2019-05-19T09:56:51.365Z,8.07
2019-05-19T09:59:20.206Z,7.93
2019-05-19T10:01:49.084Z,8.13
2019-05-19T10:04:17.883Z,7.70
2019-05-19T10:06:46.754Z,7.40
2019-05-19T10:09:46.180Z,6.87
2019-05-19T10:12:14.965Z,7.30
2019-05-19T10:14:43.856Z,7.63
2019-05-19T10:17:12.822Z,7.80
2019-05-19T10:19:41.738Z,7.40
2019-05-19T10:22:10.732Z,7.50
2019-05-19T10:24:39.607Z,7.37
2019-05-19T10:27:08.517Z,7.27
2019-05-19T10:29:37.355Z,7.20
2019-05-19T10:32:06.291Z,7.17
2019-05-19T10:34:35.103Z,7.60
2019-05-19T10:37:04.087Z,6.90
2019-05-19T10:39:32.960Z,6.83
2019-05-19T10:42:02.098Z,7.07
2019-05-19T10:44:31.405Z,6.90
2019-05-19T10:47:00.379Z,7.07
2019-05-19T10:49:29.178Z,7.60
2019-05-19T10:51:58.140Z,7.27
2019-05-19T10:54:26.980Z,7.60
2019-05-19T10:56:55.896Z,7.43
2019-05-19T10:59:24.704Z,7.53
2019-05-19T11:01:53.616Z,8.17
2019-05-19T11:04:22.468Z,7.77
2019-05-19T11:06:51.474Z,7.20
2019-05-19T11:09:20.490Z,6.97
2019-05-19T11:11:49.377Z,6.83
2019-05-19T11:14:18.372Z,7.57
2019-05-19T11:16:47.260Z,6.87
2019-05-19T11:19:16.124Z,7.40
2019-05-19T11:21:44.951Z,8.10
2019-05-19T11:24:13.868Z,7.50
2019-05-19T11:26:42.629Z,6.73
2019-05-19T11:29:11.496Z,7.27
2019-05-19T11:31:40.442Z,6.87
2019-05-19T11:34:09.369Z,7.37
2019-05-19T11:36:38.186Z,6.87
2019-05-19T11:39:08.596Z,6.60
2019-05-19T11:41:37.498Z,6.07
2019-05-19T11:44:06.652Z,6.70
2019-05-19T11:46:35.515Z,12.57
2019-05-19T11:49:04.569Z,6.20
2019-05-19T11:51:33.477Z,6.30
2019-05-19T11:54:02.570Z,6.30
2019-05-19T11:56:31.383Z,6.37
2019-05-19T11:59:00.236Z,6.80
2019-05-19T12:01:30.305Z,6.87
2019-05-19T12:03:59.352Z,6.73
2019-05-19T12:06:39.486Z,6.53
2019-05-19T12:09:04.707Z,6.20
2019-05-19T12:11:37.312Z,6.07
2019-05-19T12:14:07.554Z,6.23
2019-05-19T12:16:36.687Z,6.70
2019-05-19T12:19:05.712Z,6.50
2019-05-19T12:21:34.572Z,6.30
2019-05-19T12:24:03.501Z,18.90
2019-05-19T12:26:34.802Z,8.23
2019-05-19T12:29:02.847Z,6.53
2019-05-19T12:31:31.730Z,6.87
2019-05-19T12:34:00.592Z,6.77
2019-05-19T12:36:29.376Z,6.20
2019-05-19T12:38:58.310Z,6.17
2019-05-19T12:41:27.240Z,6.27
2019-05-19T12:43:56.114Z,6.53
2019-05-19T12:46:25.148Z,6.13
2019-05-19T12:48:53.961Z,6.00
2019-05-19T12:51:22.963Z,6.50
2019-05-19T12:53:51.790Z,6.83
2019-05-19T12:56:20.542Z,6.50
2019-05-19T12:58:49.310Z,7.03
2019-05-19T13:01:18.093Z,6.93
2019-05-19T13:03:47.031Z,6.50
2019-05-19T13:06:15.858Z,7.00
2019-05-19T13:08:44.671Z,6.10
2019-05-19T13:11:13.449Z,6.23
2019-05-19T13:13:42.414Z,6.73
2019-05-19T13:16:11.313Z,6.50
2019-05-19T13:18:40.113Z,6.70
2019-05-19T13:21:08.954Z,6.23
2019-05-19T13:23:37.911Z,5.50
2019-05-19T13:26:06.829Z,5.17
2019-05-19T13:28:35.654Z,5.80
2019-05-19T13:31:04.432Z,5.73
2019-05-19T13:33:33.294Z,6.20
2019-05-19T13:36:02.343Z,5.80
2019-05-19T13:38:31.298Z,5.80
2019-05-19T13:41:00.257Z,5.73
2019-05-19T13:43:29.271Z,5.53
2019-05-19T13:45:58.171Z,5.33
2019-05-19T13:48:27.092Z,5.30
2019-05-19T13:50:56.127Z,5.73
2019-05-19T13:53:25.101Z,5.47
2019-05-19T13:55:53.946Z,5.73
2019-05-19T13:58:22.774Z,5.60
2019-05-19T14:00:51.534Z,5.47
2019-05-19T14:03:20.348Z,5.80
2019-05-19T14:05:49.245Z,5.37
2019-05-19T14:08:18.188Z,5.40
2019-05-19T14:10:47.115Z,5.50
2019-05-19T14:13:16.007Z,5.43
2019-05-19T14:15:44.744Z,5.43
2019-05-19T14:18:13.565Z,5.10
2019-05-19T14:20:42.637Z,5.03
2019-05-19T14:23:11.450Z,4.90
2019-05-19T14:25:40.212Z,8.00
2019-05-19T14:28:09.005Z,7.87
2019-05-19T14:30:37.887Z,5.60
2019-05-19T14:33:06.740Z,5.27
2019-05-19T14:35:35.532Z,5.37
2019-05-19T14:38:04.515Z,4.90
2019-05-19T14:40:33.386Z,4.77
2019-05-19T14:43:03.151Z,5.00
2019-05-19T14:45:32.162Z,4.60
2019-05-19T14:48:01.044Z,4.80
2019-05-19T14:50:29.962Z,4.90
2019-05-19T14:53:00.535Z,4.77
2019-05-19T14:55:29.362Z,5.40
2019-05-19T14:57:58.292Z,5.00
2019-05-19T15:00:27.287Z,5.50
2019-05-19T15:02:56.482Z,5.13
2019-05-19T15:05:25.314Z,5.67
2019-05-19T15:07:54.218Z,5.47
2019-05-19T15:10:23.152Z,5.07
2019-05-19T15:12:52.042Z,5.60
2019-05-19T15:15:20.970Z,5.57
2019-05-19T15:17:49.901Z,5.70
2019-05-19T15:20:19.104Z,5.43
2019-05-19T15:22:47.978Z,5.53
2019-05-19T15:25:16.976Z,5.23
2019-05-19T15:27:59.283Z,5.60
2019-05-19T15:30:16.971Z,5.47
2019-05-19T15:32:45.915Z,5.27
2019-05-19T15:35:15.678Z,5.53
2019-05-19T15:37:44.472Z,4.87
2019-05-19T15:40:13.807Z,5.23
2019-05-19T15:42:42.567Z,12.43
2019-05-19T15:45:12.046Z,6.40
2019-05-19T15:47:40.990Z,5.10
2019-05-19T15:50:10.407Z,5.00
2019-05-19T15:52:39.247Z,5.23
2019-05-19T15:55:27.336Z,5.30
2019-05-19T15:57:56.232Z,5.07
2019-05-19T16:00:24.992Z,4.97
2019-05-19T16:02:53.900Z,5.10
2019-05-19T16:05:22.914Z,5.27
2019-05-19T16:07:51.812Z,4.87
2019-05-19T16:10:20.816Z,5.43
2019-05-19T16:12:49.942Z,5.23
2019-05-19T16:15:19.145Z,5.30
2019-05-19T16:17:48.184Z,5.50
2019-05-19T16:20:17.290Z,5.30
2019-05-19T16:22:46.338Z,5.20
2019-05-19T16:25:15.430Z,5.10
2019-05-19T16:27:44.203Z,4.90
2019-05-19T16:30:13.186Z,5.20
2019-05-19T16:32:42.133Z,5.30
2019-05-19T16:35:11.232Z,5.10
2019-05-19T16:37:59.378Z,4.70
2019-05-19T16:40:28.386Z,5.23
2019-05-19T16:42:57.223Z,4.90
2019-05-19T16:45:26.162Z,4.70
2019-05-19T16:47:55.052Z,4.90
2019-05-19T16:50:24.142Z,4.70
2019-05-19T16:52:55.046Z,4.87
2019-05-19T16:55:28.337Z,5.00
2019-05-19T16:57:57.390Z,4.90
2019-05-19T17:00:27.712Z,5.23
2019-05-19T17:02:58.883Z,4.60
2019-05-19T17:05:27.809Z,4.80
2019-05-19T17:07:56.724Z,4.70
2019-05-19T17:10:25.547Z,4.30
2019-05-19T17:12:54.496Z,5.20
2019-05-19T17:15:23.581Z,6.13
2019-05-19T17:17:52.724Z,5.57
2019-05-19T17:20:22.065Z,5.77
2019-05-19T17:22:50.925Z,5.47
2019-05-19T17:25:20.159Z,5.50
2019-05-19T17:27:49.036Z,6.10
2019-05-19T17:30:19.773Z,5.37
2019-05-19T17:32:48.688Z,5.50
2019-05-19T17:35:17.692Z,6.07
2019-05-19T17:37:46.709Z,5.90
2019-05-19T17:40:17.006Z,5.53
2019-05-19T17:42:46.031Z,5.97
2019-05-19T17:45:15.716Z,6.20
2019-05-19T17:47:44.694Z,5.70
2019-05-19T17:50:14.056Z,5.53
2019-05-19T17:52:43.235Z,12.93
2019-05-19T17:55:12.292Z,9.07
2019-05-19T17:57:41.377Z,6.57
2019-05-19T18:00:10.823Z,6.30
2019-05-19T18:02:39.884Z,5.97
2019-05-19T18:05:09.289Z,6.10
2019-05-19T18:07:38.741Z,6.07
2019-05-19T18:10:08.132Z,6.30
2019-05-19T18:12:40.598Z,6.10
2019-05-19T18:15:10.537Z,13.87
2019-05-19T18:17:39.742Z,7.20
2019-05-19T18:20:22.958Z,6.63
2019-05-19T18:22:40.413Z,6.50
2019-05-19T18:25:10.227Z,6.70
2019-05-19T18:27:39.299Z,6.20
2019-05-19T18:30:08.712Z,6.60
2019-05-19T18:32:37.497Z,6.10
2019-05-19T18:35:07.285Z,6.53
2019-05-19T18:37:36.151Z,6.27
2019-05-19T18:40:05.676Z,6.90
2019-05-19T18:42:34.705Z,6.83
2019-05-19T18:45:03.846Z,7.27
2019-05-19T18:47:32.608Z,7.13
2019-05-19T18:50:01.507Z,6.57
2019-05-19T18:52:30.432Z,7.03
2019-05-19T18:54:59.425Z,7.03
2019-05-19T18:57:28.395Z,7.13
2019-05-19T18:59:57.299Z,7.40
2019-05-19T19:02:26.311Z,7.20
2019-05-19T19:04:55.418Z,7.77
2019-05-19T19:07:43.832Z,7.07
2019-05-19T19:10:14.169Z,7.60
2019-05-19T19:12:43.338Z,11.23
2019-05-19T19:15:12.571Z,7.97
2019-05-19T19:17:41.425Z,7.83
2019-05-19T19:20:10.581Z,7.93
2019-05-19T19:22:39.707Z,7.50
2019-05-19T19:25:08.622Z,8.13
2019-05-19T19:27:37.952Z,7.90
2019-05-19T19:30:09.100Z,8.17
2019-05-19T19:32:38.556Z,7.63
2019-05-19T19:35:08.501Z,7.87
2019-05-19T19:37:37.497Z,8.00
2019-05-19T19:40:07.303Z,8.17
2019-05-19T19:42:36.698Z,8.17
2019-05-19T19:45:06.758Z,7.83
2019-05-19T19:47:36.623Z,8.33
2019-05-19T19:50:07.475Z,8.43
2019-05-19T19:52:38.313Z,7.87
2019-05-19T19:55:07.406Z,8.57
2019-05-19T19:57:37.043Z,8.70
2019-05-19T20:00:17.866Z,8.37
2019-05-19T20:02:37.645Z,8.47
2019-05-19T20:05:07.544Z,7.87
2019-05-19T20:07:36.983Z,8.73
2019-05-19T20:10:06.482Z,7.97
2019-05-19T20:12:35.595Z,8.70
2019-05-19T20:15:05.385Z,8.30
2019-05-19T20:17:34.449Z,8.30
2019-05-19T20:20:03.342Z,7.90
2019-05-19T20:22:32.893Z,8.37
2019-05-19T20:25:02.249Z,8.10
2019-05-19T20:27:32.145Z,8.03
2019-05-19T20:30:03.682Z,8.17
2019-05-19T20:32:33.731Z,8.77
2019-05-19T20:35:03.135Z,8.70
2019-05-19T20:37:33.019Z,8.37
2019-05-19T20:40:02.501Z,8.80
2019-05-19T20:42:32.108Z,7.80
2019-05-19T20:45:02.121Z,8.83
2019-05-19T20:47:31.548Z,8.40
2019-05-19T20:50:01.017Z,8.53
2019-05-19T20:52:29.941Z,9.30
2019-05-19T20:54:58.903Z,8.70
2019-05-19T20:57:29.292Z,9.23
2019-05-19T20:59:59.936Z,8.97
2019-05-19T21:02:30.075Z,8.87
2019-05-19T21:04:59.833Z,9.00
2019-05-19T21:07:29.855Z,9.83
2019-05-19T21:09:59.955Z,8.83
2019-05-19T21:12:29.178Z,9.07
2019-05-19T21:14:58.611Z,9.37
2019-05-19T21:17:27.442Z,9.07
2019-05-19T21:19:56.739Z,8.87
2019-05-19T21:22:26.387Z,9.37
2019-05-19T21:24:56.014Z,9.73
2019-05-19T21:27:24.939Z,10.00
2019-05-19T21:29:54.060Z,10.13
2019-05-19T21:32:23.436Z,9.87
2019-05-19T21:34:52.775Z,9.03
2019-05-19T21:37:21.882Z,10.40
2019-05-19T21:39:50.780Z,8.93
2019-05-19T21:42:19.878Z,9.43
2019-05-19T21:44:49.343Z,10.10
2019-05-19T21:47:18.568Z,10.93
2019-05-19T21:49:48.356Z,10.80
2019-05-19T21:52:17.454Z,10.00
2019-05-19T21:54:46.581Z,10.53
2019-05-19T21:57:15.731Z,10.17
2019-05-19T21:59:44.956Z,10.60
2019-05-19T22:02:14.101Z,10.50
2019-05-19T22:04:43.494Z,10.47
2019-05-19T22:07:24.168Z,10.53
2019-05-19T22:09:53.168Z,10.97
2019-05-19T22:12:22.753Z,11.07
2019-05-19T22:14:53.706Z,10.60
2019-05-19T22:17:22.739Z,10.77
2019-05-19T22:19:51.664Z,10.90
2019-05-19T22:22:20.552Z,11.50
2019-05-19T22:24:49.550Z,10.47
2019-05-19T22:27:18.425Z,10.83
2019-05-19T22:29:48.160Z,11.60
2019-05-19T22:32:16.968Z,11.33
2019-05-19T22:34:45.826Z,10.53
2019-05-19T22:37:14.595Z,11.70
2019-05-19T22:39:43.391Z,11.40
2019-05-19T22:42:12.199Z,10.97
2019-05-19T22:44:41.016Z,11.13
2019-05-19T22:47:09.926Z,11.10
2019-05-19T22:49:38.730Z,11.63
2019-05-19T22:52:07.565Z,11.27
2019-05-19T22:54:36.333Z,11.43
2019-05-19T22:57:05.171Z,12.00
2019-05-19T22:59:34.095Z,12.30
2019-05-19T23:02:02.840Z,12.10
2019-05-19T23:04:31.601Z,12.37
2019-05-19T23:07:00.474Z,11.83
2019-05-19T23:09:29.305Z,11.23
2019-05-19T23:11:58.147Z,11.60
2019-05-19T23:14:27.015Z,11.73
2019-05-19T23:16:55.787Z,11.70
2019-05-19T23:19:24.583Z,12.03
2019-05-19T23:21:53.644Z,12.07
2019-05-19T23:24:22.412Z,11.30
2019-05-19T23:26:51.250Z,12.40
2019-05-19T23:29:20.153Z,12.30
2019-05-19T23:31:48.995Z,12.70
2019-05-19T23:34:18.054Z,12.43
2019-05-19T23:36:46.944Z,12.37
2019-05-19T23:39:15.739Z,12.50
2019-05-19T23:41:44.567Z,12.37
2019-05-19T23:44:13.463Z,13.00
2019-05-19T23:46:42.323Z,12.20
2019-05-19T23:49:11.238Z,12.67
2019-05-19T23:51:40.288Z,12.20
2019-05-19T23:54:09.152Z,13.10
2019-05-19T23:56:37.998Z,13.27
2019-05-19T23:59:06.863Z,11.67
